Time;durP1;ratioP1;P1;durP2;ratioP2;P2;SDS_P1;SDS_P2;PMS_P1;PMS_P2;Temp;Humidity;BMP_temperature;BMP_pressure;BME280_temperature;BME280_humidity;BME280_pressure;Samples;Min_cycle;Max_cycle;Signal;HPM_P1;HPM_P2
2022/06/22 00:01:54;;;;;;;5.30;3.87;;;;;;;10.89;67.50;93873.93;1760976;81;21074;-49
2022/06/22 00:04:26;;;;;;;10.23;4.80;;;;;;;10.83;67.64;93879.91;1761818;81;21243;-50
2022/06/22 00:06:58;;;;;;;7.45;5.40;;;;;;;10.77;67.89;93879.05;1664396;84;21544;-50
2022/06/22 00:09:29;;;;;;;9.58;5.30;;;;;;;10.69;68.12;93887.38;1753320;81;21074;-50
2022/06/22 00:11:57;;;;;;;10.65;5.37;;;;;;;10.68;68.59;93880.36;1725417;81;21017;-51
2022/06/22 00:14:32;;;;;;;9.18;5.42;;;;;;;10.65;68.59;93893.05;1753936;81;21543;-50
2022/06/22 00:17:00;;;;;;;12.05;6.05;;;;;;;10.60;68.67;93881.91;1748344;81;21173;-50
2022/06/22 00:19:35;;;;;;;10.55;6.00;;;;;;;10.54;68.65;93881.79;1753833;81;21000;-50
2022/06/22 00:22:04;;;;;;;7.20;4.70;;;;;;;10.47;68.36;93884.12;1754207;81;20965;-48
2022/06/22 00:24:40;;;;;;;11.03;5.12;;;;;;;10.43;68.77;93891.19;1753868;81;21476;-49
2022/06/22 00:27:22;;;;;;;6.87;4.67;;;;;;;10.41;69.28;93892.88;1724291;81;21007;-49
2022/06/22 00:30:01;;;;;;;9.03;5.22;;;;;;;10.39;69.66;93895.33;1739870;81;21265;-51
2022/06/22 00:32:29;;;;;;;11.60;6.20;;;;;;;10.40;69.82;93892.73;1753725;81;21018;-48
2022/06/22 00:35:00;;;;;;;11.97;5.10;;;;;;;10.36;70.00;93898.39;1753779;81;21000;-49
2022/06/22 00:37:30;;;;;;;6.25;5.12;;;;;;;10.31;69.98;93896.91;1754193;81;21035;-49
2022/06/22 00:40:03;;;;;;;12.23;5.47;;;;;;;10.30;70.23;93898.11;1754033;81;20996;-49
2022/06/22 00:42:41;;;;;;;7.28;5.03;;;;;;;10.30;70.14;93899.48;1754361;81;21092;-49
2022/06/22 00:45:15;;;;;;;9.60;5.10;;;;;;;10.27;70.10;93901.79;1753854;81;21008;-49
2022/06/22 00:47:49;;;;;;;7.95;5.17;;;;;;;10.24;70.47;93899.98;1751581;81;21116;-49
2022/06/22 00:50:24;;;;;;;8.70;5.07;;;;;;;10.26;70.85;93907.92;1752995;81;21488;-50
2022/06/22 00:53:01;;;;;;;10.65;4.75;;;;;;;10.29;70.82;93908.95;1754191;81;21420;-49
2022/06/22 00:55:33;;;;;;;7.75;5.10;;;;;;;10.27;70.92;93910.04;1753800;81;21975;-49
2022/06/22 00:58:09;;;;;;;8.65;5.45;;;;;;;10.29;71.07;93896.59;1724835;81;20996;-49
2022/06/22 01:00:43;;;;;;;6.22;4.35;;;;;;;10.33;71.13;93895.83;1725671;81;21051;-49
2022/06/22 01:03:21;;;;;;;4.40;3.70;;;;;;;10.41;70.97;93895.63;1757030;81;20963;-49
2022/06/22 01:06:00;;;;;;;8.85;3.85;;;;;;;10.47;70.65;93897.88;1758628;81;21055;-50
2022/06/22 01:08:49;;;;;;;4.83;4.10;;;;;;;10.49;70.18;93876.94;1758583;81;21265;-49
2022/06/22 01:14:23;;;;;;;5.35;4.30;;;;;;;10.53;69.84;93876.14;1758721;81;20940;-48
2022/06/22 01:16:52;;;;;;;8.45;4.85;;;;;;;10.50;69.70;93874.34;1758679;81;21520;-49
2022/06/22 01:20:06;;;;;;;5.80;4.40;;;;;;;10.43;70.14;93876.66;1758629;81;21003;-48
2022/06/22 01:23:27;;;;;;;10.15;4.47;;;;;;;10.44;70.85;93878.19;1758676;81;21451;-49
2022/06/22 01:26:09;;;;;;;10.25;4.42;;;;;;;10.36;71.59;93877.02;1758818;81;20945;-48
2022/06/22 01:28:37;;;;;;;7.30;4.67;;;;;;;10.37;72.15;93878.55;1758715;81;20999;-48
2022/06/22 01:31:09;;;;;;;7.72;4.80;;;;;;;10.42;72.48;93874.55;1758929;81;20991;-48
2022/06/22 01:33:39;;;;;;;11.75;5.15;;;;;;;10.50;72.82;93873.59;1758300;81;21027;-48
2022/06/22 01:36:11;;;;;;;6.22;4.67;;;;;;;10.54;73.03;93870.79;1759044;81;21149;-48
2022/06/22 01:38:40;;;;;;;10.87;6.13;;;;;;;10.55;72.67;93872.94;1758541;81;21047;-48
2022/06/22 01:41:21;;;;;;;13.00;7.22;;;;;;;10.49;73.04;93865.20;1759136;81;21064;-49
2022/06/22 01:44:15;;;;;;;14.07;7.12;;;;;;;10.43;73.22;93868.42;1758135;81;21047;-49
2022/06/22 01:47:17;;;;;;;9.80;6.33;;;;;;;10.45;73.30;93865.96;1758718;81;20964;-48
2022/06/22 01:50:05;;;;;;;10.43;5.33;;;;;;;10.45;73.31;93872.23;1758728;81;21417;-49
2022/06/22 01:53:19;;;;;;;9.58;5.28;;;;;;;10.52;73.36;93868.38;1758470;81;20988;-50
2022/06/22 01:56:13;;;;;;;10.60;5.30;;;;;;;10.53;73.03;93872.65;1758557;81;21000;-50
2022/06/22 01:58:55;;;;;;;11.25;5.75;;;;;;;10.53;72.61;93864.41;1758658;81;21015;-49
2022/06/22 02:01:30;;;;;;;12.93;6.42;;;;;;;10.54;72.81;93874.17;1756021;81;20964;-48
2022/06/22 02:04:18;;;;;;;16.62;6.53;;;;;;;10.51;73.13;93872.36;1753929;81;21091;-50
2022/06/22 02:10:04;;;;;;;11.73;5.80;;;;;;;10.48;72.73;93860.30;1753827;81;20991;-49
2022/06/22 02:12:37;;;;;;;15.15;6.47;;;;;;;10.55;72.76;93861.31;1732237;81;20957;-48
2022/06/22 02:15:31;;;;;;;8.77;5.57;;;;;;;10.70;72.90;93865.52;1754246;81;20948;-49
2022/06/22 02:17:59;;;;;;;9.50;5.55;;;;;;;10.75;72.73;93853.23;1753721;81;21935;-48
2022/06/22 02:20:36;;;;;;;11.63;5.90;;;;;;;10.82;72.82;93855.02;1724156;81;20996;-48
2022/06/22 02:23:23;;;;;;;8.40;5.72;;;;;;;10.90;72.70;93853.44;1753830;81;21000;-49
2022/06/22 02:26:02;;;;;;;6.45;4.53;;;;;;;10.99;72.57;93840.22;1753831;81;21004;-49
2022/06/22 02:28:30;;;;;;;10.38;4.50;;;;;;;11.03;72.54;93834.69;1731731;81;20944;-49
2022/06/22 02:30:58;;;;;;;5.30;3.95;;;;;;;11.05;72.51;93830.84;1724516;81;21714;-49
2022/06/22 02:33:26;;;;;;;6.90;4.30;;;;;;;11.10;72.30;93832.94;1753638;81;20999;-49
2022/06/22 02:35:55;;;;;;;7.55;4.05;;;;;;;11.15;72.23;93830.15;1724018;81;20933;-49
2022/06/22 02:38:22;;;;;;;7.40;4.42;;;;;;;11.19;72.04;93832.09;1753694;81;21440;-50
2022/06/22 02:46:23;;;;;;;8.78;4.37;;;;;;;11.40;71.63;93840.61;1753637;81;20929;-49
2022/06/22 02:48:57;;;;;;;8.13;4.80;;;;;;;11.46;71.30;93839.48;1753753;81;20960;-49
2022/06/22 02:51:28;;;;;;;6.65;4.28;;;;;;;11.52;71.19;93840.33;1753675;81;20961;-48
2022/06/22 02:53:58;;;;;;;8.45;4.37;;;;;;;11.56;70.69;93838.80;1753812;81;21098;-48
2022/06/22 02:56:38;;;;;;;9.10;3.90;;;;;;;11.58;70.77;93839.85;1753991;81;21098;-49
2022/06/22 02:59:07;;;;;;;14.07;4.70;;;;;;;11.61;70.92;93838.89;1753750;81;20944;-48
2022/06/22 03:01:35;;;;;;;6.78;3.67;;;;;;;11.66;70.93;93842.36;1753790;81;21035;-49
2022/06/22 03:04:12;;;;;;;19.17;4.83;;;;;;;11.68;70.92;93841.26;1753695;81;20991;-49
2022/06/22 03:06:45;;;;;;;17.98;4.97;;;;;;;11.66;70.84;93838.22;1724318;81;20952;-48
2022/06/22 03:09:13;;;;;;;15.65;4.90;;;;;;;11.63;70.89;93832.89;1753767;81;21255;-48
2022/06/22 03:11:44;;;;;;;10.85;4.67;;;;;;;11.60;70.84;93820.08;1753627;81;20991;-50
2022/06/22 03:14:31;;;;;;;11.28;4.83;;;;;;;11.58;70.87;93816.44;1754070;81;21424;-50
2022/06/22 03:17:06;;;;;;;15.32;5.05;;;;;;;11.58;70.71;93820.56;1753698;81;21000;-49
2022/06/22 03:20:08;;;;;;;9.88;4.85;;;;;;;11.63;70.37;93812.23;1752711;81;20959;-50
2022/06/22 03:22:45;;;;;;;13.20;6.00;;;;;;;11.67;70.61;93821.84;1753664;81;21072;-49
2022/06/22 03:25:39;;;;;;;137.50;81.72;;;;;;;11.66;70.49;93814.81;1725019;81;20984;-48
2022/06/22 03:28:12;;;;;;;52.50;29.45;;;;;;;11.68;70.64;93814.34;1753267;81;21587;-49
2022/06/22 03:30:56;;;;;;;24.82;13.50;;;;;;;11.75;71.03;93809.18;1753766;81;21104;-48
2022/06/22 03:33:29;;;;;;;14.93;8.80;;;;;;;11.88;70.97;93802.75;1753687;81;20957;-48
2022/06/22 03:36:00;;;;;;;17.62;8.68;;;;;;;12.00;70.58;93807.20;1753378;81;21128;-49
2022/06/22 03:38:38;;;;;;;15.13;7.85;;;;;;;12.11;70.06;93803.22;1753683;81;20992;-50
2022/06/22 03:41:13;;;;;;;11.90;6.33;;;;;;;12.18;70.04;93811.11;1753763;81;21090;-50
2022/06/22 03:44:01;;;;;;;11.12;5.67;;;;;;;12.26;69.55;93817.73;1753772;81;21477;-49
2022/06/22 03:46:52;;;;;;;8.88;5.00;;;;;;;12.34;69.15;93814.73;1753816;81;21016;-49
2022/06/22 03:49:34;;;;;;;8.23;4.75;;;;;;;12.37;69.01;93816.52;1743510;81;21811;-50
2022/06/22 03:52:13;;;;;;;19.30;5.87;;;;;;;12.36;69.14;93815.61;1751701;81;21039;-50
2022/06/22 03:55:07;;;;;;;10.80;5.97;;;;;;;12.35;69.39;93827.88;1753677;81;21004;-50
2022/06/22 03:57:38;;;;;;;14.00;6.00;;;;;;;12.35;69.41;93827.28;1753743;81;20976;-49
2022/06/22 04:00:07;;;;;;;10.13;5.22;;;;;;;12.32;68.29;93840.66;1753695;81;21468;-49
2022/06/22 04:02:34;;;;;;;11.43;5.53;;;;;;;12.32;68.86;93836.52;1753755;81;21814;-50
2022/06/22 04:05:03;;;;;;;12.58;5.25;;;;;;;12.29;69.16;93842.22;1753598;81;21429;-50
2022/06/22 04:07:37;;;;;;;6.92;4.12;;;;;;;12.28;69.40;93848.34;1724871;81;20945;-50
2022/06/22 04:10:07;;;;;;;9.18;5.17;;;;;;;12.28;69.38;93843.46;1753936;81;20999;-50
2022/06/22 04:12:41;;;;;;;9.75;4.60;;;;;;;12.28;69.43;93847.59;1753893;81;21448;-49
2022/06/22 04:15:30;;;;;;;13.98;5.30;;;;;;;12.31;69.25;93850.17;1753904;81;21794;-49
2022/06/22 04:18:03;;;;;;;9.20;4.50;;;;;;;12.36;69.12;93850.09;1753306;81;21063;-49
2022/06/22 04:20:51;;;;;;;9.00;4.78;;;;;;;12.42;68.59;93855.08;1753128;81;21015;-49
2022/06/22 04:23:43;;;;;;;6.85;4.20;;;;;;;12.50;68.40;93845.92;1752993;81;21503;-48
2022/06/22 04:26:35;;;;;;;5.55;4.20;;;;;;;12.66;67.78;93841.23;1753844;81;21015;-49
2022/06/22 04:29:26;;;;;;;9.20;3.80;;;;;;;12.87;66.96;93822.07;1724485;81;21273;-48
2022/06/22 04:32:14;;;;;;;3.58;3.08;;;;;;;13.07;66.14;93824.84;1753099;81;21086;-49
2022/06/22 04:34:46;;;;;;;6.55;3.60;;;;;;;13.25;63.79;93821.78;1753994;81;21431;-51
2022/06/22 04:37:28;;;;;;;15.20;3.90;;;;;;;13.42;63.29;93828.25;1753949;81;20980;-52
2022/06/22 04:40:12;;;;;;;10.10;3.25;;;;;;;13.53;62.57;93833.25;1753652;81;21000;-47
2022/06/22 04:42:41;;;;;;;5.30;2.47;;;;;;;13.65;61.70;93845.17;1752628;81;22139;-49
2022/06/22 04:45:26;;;;;;;6.87;2.33;;;;;;;13.74;61.37;93844.98;1753538;81;20988;-50
2022/06/22 04:47:55;;;;;;;3.80;2.20;;;;;;;13.82;60.45;93851.61;1753605;81;20961;-48
2022/06/22 04:50:22;;;;;;;5.53;2.45;;;;;;;13.95;59.99;93844.44;1753925;81;21444;-49
2022/06/22 04:52:52;;;;;;;3.40;3.10;;;;;;;14.08;60.08;93856.48;1753676;81;20968;-50
2022/06/22 04:55:22;;;;;;;4.42;2.22;;;;;;;14.20;59.24;93858.13;1753833;81;21219;-51
2022/06/22 04:57:52;;;;;;;4.33;2.02;;;;;;;14.34;58.51;93862.77;1754024;81;21099;-50
2022/06/22 05:00:24;;;;;;;7.12;1.82;;;;;;;14.48;58.32;93865.37;1754332;81;20991;-49
2022/06/22 05:02:57;;;;;;;2.40;2.07;;;;;;;14.61;57.40;93869.87;1753849;81;21441;-51
2022/06/22 05:05:27;;;;;;;3.22;1.90;;;;;;;14.71;57.06;93876.10;1754270;81;21415;-49
2022/06/22 05:08:19;;;;;;;3.22;1.98;;;;;;;14.78;56.90;93871.47;1753776;81;21132;-48
2022/06/22 05:11:10;;;;;;;5.03;3.05;;;;;;;14.84;56.75;93881.95;1753885;81;21507;-48
2022/06/22 05:13:43;;;;;;;2.08;1.87;;;;;;;14.92;56.90;93885.78;1752987;81;21063;-49
2022/06/22 05:16:18;;;;;;;2.90;1.98;;;;;;;14.98;56.61;93887.95;1754277;81;20956;-49
2022/06/22 05:18:47;;;;;;;3.62;1.98;;;;;;;15.03;56.67;93903.83;1753880;81;21051;-49
2022/06/22 05:21:41;;;;;;;3.92;2.12;;;;;;;15.05;56.47;93898.58;1754157;81;21276;-48
2022/06/22 05:24:31;;;;;;;2.20;2.00;;;;;;;15.13;56.77;93903.00;1753915;81;20996;-48
2022/06/22 05:27:00;;;;;;;6.17;2.02;;;;;;;15.25;56.27;93894.27;1750271;80;21004;-52
2022/06/22 05:29:38;;;;;;;6.37;3.60;;;;;;;15.43;55.74;93888.94;1724055;82;21035;-50
2022/06/22 05:32:11;;;;;;;5.33;3.22;;;;;;;15.56;55.44;93892.75;1729440;81;21553;-49
2022/06/22 05:34:40;;;;;;;;;;;;;;;15.65;54.62;93891.16;1750234;81;21465;-50
2022/06/22 05:37:21;;;;;;;9.73;2.80;;;;;;;15.70;54.16;93894.56;1750817;81;20150;-49
2022/06/22 05:39:49;;;;;;;17.15;4.62;;;;;;;15.69;54.15;93895.83;1746845;81;21032;-51
2022/06/22 05:42:17;;;;;;;6.03;2.55;;;;;;;15.71;53.93;93887.77;1752763;81;21008;-50
2022/06/22 05:44:46;;;;;;;5.75;2.90;;;;;;;15.74;54.52;93889.53;1731518;81;21023;-48
2022/06/22 05:47:24;;;;;;;10.85;2.50;;;;;;;15.77;54.56;93902.39;1740586;81;22351;-50
2022/06/22 05:49:57;;;;;;;11.53;2.35;;;;;;;15.83;54.74;93910.11;1677126;83;21077;-51
2022/06/22 05:52:50;;;;;;;5.37;1.98;;;;;;;15.92;54.86;93907.09;1745067;81;21403;-49
2022/06/22 05:55:38;;;;;;;4.30;1.67;;;;;;;16.00;53.78;93894.88;1738530;81;21052;-52
2022/06/22 05:58:15;;;;;;;7.92;1.95;;;;;;;16.03;52.73;93900.19;1630433;83;22480;-51
2022/06/22 06:00:50;;;;;;;9.50;2.98;;;;;;;16.02;53.07;93895.90;1707723;82;21816;-50
2022/06/22 06:03:43;;;;;;;6.15;1.70;;;;;;;16.04;52.72;93889.22;1698934;83;21522;-52
2022/06/22 06:06:16;;;;;;;9.70;2.00;;;;;;;16.07;52.71;93893.02;1754250;80;21041;-52
2022/06/22 06:08:49;;;;;;;;;;;;;;;16.06;51.58;93886.69;1693708;83;21017;-50
2022/06/22 06:11:24;;;;;;;5.45;3.08;;;;;;;16.05;51.88;93889.34;1719766;83;20579;-51
2022/06/22 06:13:59;;;;;;;55.75;35.20;;;;;;;16.06;51.77;93895.02;1744706;80;21229;-51
2022/06/22 06:16:32;;;;;;;29.48;18.35;;;;;;;16.11;52.58;93902.58;1739249;80;21037;-51
2022/06/22 06:19:02;;;;;;;25.70;17.42;;;;;;;16.20;51.47;93891.87;1744067;81;21073;-50
2022/06/22 06:21:33;;;;;;;55.25;32.28;;;;;;;16.25;51.00;93895.30;1735666;81;21059;-52
2022/06/22 06:24:21;;;;;;;12.90;5.42;;;;;;;16.29;51.39;93898.70;1739784;81;21042;-51
2022/06/22 06:29:58;;;;;;;6.00;2.22;;;;;;;16.43;50.45;93905.29;1750330;81;21037;-52
2022/06/22 06:32:49;;;;;;;6.08;2.02;;;;;;;16.47;49.50;93907.95;1712106;81;21049;-51
2022/06/22 06:35:31;;;;;;;4.85;2.70;;;;;;;16.45;49.73;93909.70;1725002;82;21495;-50
2022/06/22 06:38:13;;;;;;;4.80;1.83;;;;;;;16.41;49.00;93911.98;1739172;81;21023;-50
2022/06/22 06:41:19;;;;;;;4.53;2.30;;;;;;;16.37;49.38;93913.61;1723596;83;22098;-50
2022/06/22 06:43:57;;;;;;;11.50;2.30;;;;;;;16.40;49.37;93916.02;1741066;80;21009;-51
2022/06/22 06:46:33;;;;;;;5.42;2.10;;;;;;;16.43;48.43;93899.12;1740098;81;21102;-56
2022/06/22 06:49:33;;;;;;;2.50;1.92;;;;;;;16.46;49.08;93907.83;1753109;80;21598;-49
2022/06/22 06:52:05;;;;;;;6.50;3.92;;;;;;;16.55;49.15;93897.09;1726407;82;21025;-54
2022/06/22 06:54:58;;;;;;;14.43;5.12;;;;;;;16.64;48.76;93898.98;1750529;80;21094;-55
2022/06/22 06:57:27;;;;;;;15.05;5.20;;;;;;;16.75;48.75;93900.34;1759323;80;21025;-51
2022/06/22 06:59:58;;;;;;;4.42;2.37;;;;;;;16.84;48.30;93895.16;1728270;81;21058;-52
2022/06/22 07:02:38;;;;;;;8.25;3.42;;;;;;;16.87;48.24;93891.38;1719174;81;21061;-52
2022/06/22 07:05:10;;;;;;;9.55;2.22;;;;;;;16.92;48.32;93894.78;1733234;81;21096;-51
2022/06/22 07:07:43;;;;;;;3.20;1.55;;;;;;;17.01;48.89;93894.49;1704930;82;21236;-52
2022/06/22 07:10:23;;;;;;;2.70;1.45;;;;;;;17.11;47.97;93894.36;1723037;81;20989;-50
2022/06/22 07:12:59;;;;;;;79.10;45.60;;;;;;;17.17;47.85;93897.25;1724029;81;21132;-56
2022/06/22 07:15:36;;;;;;;4.22;2.85;;;;;;;17.21;47.24;93900.52;1728218;81;22118;-51
2022/06/22 07:18:26;;;;;;;2.27;2.08;;;;;;;17.19;46.94;93912.78;1697419;83;21081;-55
2022/06/22 07:20:59;;;;;;;3.75;3.30;;;;;;;17.15;47.68;93908.12;1696681;83;21146;-50
2022/06/22 07:23:32;;;;;;;3.72;2.75;;;;;;;17.17;46.79;93906.98;1691901;83;21549;-51
2022/06/22 07:26:09;;;;;;;3.37;1.60;;;;;;;17.13;46.88;93904.33;1681677;83;21073;-50
2022/06/22 07:28:44;;;;;;;2.67;2.17;;;;;;;17.10;47.36;93908.12;1707453;81;21042;-51
2022/06/22 07:31:20;;;;;;;2.55;1.40;;;;;;;17.13;47.69;93914.05;1705588;81;21598;-50
2022/06/22 07:33:54;;;;;;;4.28;1.80;;;;;;;17.22;46.52;93913.77;1696053;82;21083;-50
2022/06/22 07:36:32;;;;;;;6.20;1.95;;;;;;;17.27;46.87;93913.02;1703137;82;21093;-51
2022/06/22 07:39:17;;;;;;;5.22;2.00;;;;;;;17.32;46.45;93909.45;1703490;82;21127;-51
2022/06/22 07:41:46;;;;;;;7.60;2.60;;;;;;;17.43;47.10;93913.63;1683792;82;21053;-49
2022/06/22 07:44:21;;;;;;;1.98;1.35;;;;;;;17.57;47.21;93915.32;1713616;82;21474;-50
2022/06/22 07:47:11;;;;;;;4.47;1.95;;;;;;;17.71;46.24;93925.38;1683592;81;21762;-53
2022/06/22 07:49:43;;;;;;;3.08;1.72;;;;;;;17.75;45.21;93916.13;1709981;81;21401;-52
2022/06/22 07:52:14;;;;;;;;;;;;;;;17.73;45.47;93926.39;1714015;82;21061;-50
2022/06/22 07:54:47;;;;;;;3.20;1.40;;;;;;;17.77;45.15;93917.77;1703189;83;20410;-52
2022/06/22 07:57:36;;;;;;;1.95;1.80;;;;;;;17.78;45.34;93929.01;1693803;84;21627;-50
2022/06/22 08:00:09;;;;;;;2.45;2.10;;;;;;;17.86;45.49;93927.22;1684371;84;21507;-52
2022/06/22 08:03:02;;;;;;;4.37;1.70;;;;;;;17.92;45.32;93930.09;1711462;82;20968;-50
2022/06/22 08:05:37;;;;;;;14.87;2.65;;;;;;;18.04;45.32;93934.31;1717523;81;21147;-52
2022/06/22 08:08:09;;;;;;;2.30;1.30;;;;;;;18.18;44.40;93932.61;1696751;83;21133;-53
2022/06/22 08:10:45;;;;;;;5.03;2.58;;;;;;;18.22;44.53;93935.87;1692612;84;21110;-50
2022/06/22 08:13:23;;;;;;;7.30;1.57;;;;;;;18.19;44.31;93931.34;1714851;82;21175;-53
2022/06/22 08:16:07;;;;;;;11.08;1.70;;;;;;;18.16;44.02;93938.56;1692365;83;21288;-52
2022/06/22 08:18:36;;;;;;;2.52;1.75;;;;;;;18.10;44.34;93939.23;1714772;81;21018;-51
2022/06/22 08:21:06;;;;;;;4.37;1.52;;;;;;;17.99;44.80;93938.55;1729151;81;20987;-49
2022/06/22 08:23:35;;;;;;;5.97;1.22;;;;;;;17.92;44.70;93940.45;1680133;83;21069;-53
2022/06/22 08:26:06;;;;;;;7.58;1.67;;;;;;;17.84;44.94;93945.80;1723139;82;22442;-53
2022/06/22 08:28:37;;;;;;;3.15;1.62;;;;;;;17.77;44.99;93946.97;1731748;81;21096;-51
2022/06/22 08:31:06;;;;;;;3.35;2.08;;;;;;;17.73;45.32;93945.10;1715249;81;21156;-50
2022/06/22 08:33:47;;;;;;;4.70;2.15;;;;;;;17.74;45.61;93954.96;1676002;84;21057;-53
2022/06/22 08:36:38;;;;;;;9.18;2.30;;;;;;;17.71;45.66;93958.15;1703145;81;20972;-54
2022/06/22 08:39:20;;;;;;;4.58;2.00;;;;;;;17.70;46.09;93946.12;1722329;81;21832;-55
2022/06/22 08:42:02;;;;;;;1.80;1.35;;;;;;;17.70;46.00;93951.08;1688161;83;20974;-52
2022/06/22 08:45:19;;;;;;;5.20;1.50;;;;;;;17.74;45.91;93954.34;1657813;84;21150;-52
2022/06/22 08:48:01;;;;;;;2.72;2.00;;;;;;;17.77;46.10;93951.92;1667836;85;21077;-52
2022/06/22 08:50:55;;;;;;;8.78;3.27;;;;;;;17.76;46.02;93963.55;1675048;85;21114;-53
2022/06/22 08:53:39;;;;;;;4.17;1.70;;;;;;;17.75;46.08;93963.42;1683426;83;21193;-51
2022/06/22 08:56:38;;;;;;;2.00;1.57;;;;;;;17.78;45.46;93958.23;1701910;83;21024;-52
2022/06/22 08:59:44;;;;;;;8.28;1.75;;;;;;;17.80;45.64;93962.02;1698040;83;21011;-53
2022/06/22 09:02:41;;;;;;;2.75;1.30;;;;;;;17.85;45.63;93960.49;1720111;81;21017;-51
2022/06/22 09:05:21;;;;;;;3.33;1.42;;;;;;;17.89;45.23;93954.78;1728056;81;21086;-50
2022/06/22 09:08:21;;;;;;;7.97;1.62;;;;;;;18.02;45.54;93952.82;1682342;82;22181;-52
2022/06/22 09:10:55;;;;;;;;;;;;;;;18.16;45.77;93964.27;1703876;82;21026;-53
2022/06/22 09:13:53;;;;;;;2.22;1.65;;;;;;;18.24;45.45;93965.99;1717231;82;20449;-53
2022/06/22 09:16:38;;;;;;;6.40;1.50;;;;;;;18.23;45.15;93961.05;1711139;82;21112;-50
2022/06/22 09:19:23;;;;;;;2.92;1.30;;;;;;;18.20;44.93;93953.73;1714521;81;21073;-51
2022/06/22 09:22:09;;;;;;;1.77;1.30;;;;;;;18.25;44.88;93954.33;1707285;82;21907;-52
2022/06/22 09:25:01;;;;;;;3.60;1.35;;;;;;;18.33;44.40;93960.13;1707250;81;21035;-53
2022/06/22 09:28:05;;;;;;;3.77;1.47;;;;;;;18.41;44.58;93962.47;1709057;83;21637;-52
2022/06/22 09:31:05;;;;;;;2.27;1.60;;;;;;;18.53;45.27;93963.30;1724898;81;21081;-54
2022/06/22 09:33:54;;;;;;;3.00;1.10;;;;;;;18.67;44.50;93967.00;1706557;82;21051;-54
2022/06/22 09:36:45;;;;;;;2.22;1.20;;;;;;;18.75;43.85;93970.09;1738172;81;21227;-53
2022/06/22 09:39:55;;;;;;;2.22;1.60;;;;;;;18.81;44.22;93959.66;1733152;81;21049;-51
2022/06/22 09:43:00;;;;;;;3.00;1.20;;;;;;;19.00;43.94;93966.08;1679390;83;21510;-51
2022/06/22 09:45:57;;;;;;;3.75;1.40;;;;;;;19.23;43.16;93962.49;1728411;81;21085;-54
2022/06/22 09:48:49;;;;;;;1.67;1.30;;;;;;;19.41;42.69;93957.63;1735767;81;21812;-50
2022/06/22 09:51:30;;;;;;;2.50;1.50;;;;;;;19.60;43.10;93953.59;1748813;81;21254;-51
2022/06/22 09:57:22;;;;;;;4.60;1.30;;;;;;;20.06;42.14;93965.90;1732285;80;20983;-50
2022/06/22 10:00:26;;;;;;;11.20;1.20;;;;;;;20.15;41.34;93960.70;1723982;82;22223;-56
2022/06/22 10:03:28;;;;;;;4.22;1.40;;;;;;;20.18;41.50;93968.67;1686911;81;21430;-51
2022/06/22 10:06:35;;;;;;;8.60;3.40;;;;;;;20.11;40.99;93967.86;1721361;82;21593;-50
2022/06/22 10:09:23;;;;;;;7.80;3.40;;;;;;;20.03;41.19;93975.33;1713038;81;21145;-52
2022/06/22 10:11:57;;;;;;;6.20;3.08;;;;;;;19.93;41.72;93961.58;1715494;81;21106;-52
2022/06/22 10:14:43;;;;;;;;;;;;;;;19.96;42.12;93966.11;1749623;81;21428;-53
2022/06/22 10:17:50;;;;;;;4.65;1.55;;;;;;;20.09;41.70;93953.67;1761772;81;20241;-51
2022/06/22 10:20:32;;;;;;;2.00;1.35;;;;;;;20.34;42.16;93960.72;1715635;82;22235;-53
2022/06/22 10:23:22;;;;;;;1.07;1.00;;;;;;;20.72;41.78;93952.41;1717273;82;21006;-52
2022/06/22 10:26:03;;;;;;;2.47;1.10;;;;;;;21.09;41.20;93941.16;1738347;81;21002;-55
2022/06/22 10:28:59;;;;;;;2.30;1.00;;;;;;;21.47;39.21;93948.11;1706945;82;21101;-50
2022/06/22 10:31:44;;;;;;;5.53;1.15;;;;;;;21.61;38.60;93946.80;1729114;82;21093;-52
2022/06/22 10:34:34;;;;;;;1.20;1.10;;;;;;;21.56;39.58;93942.07;1736400;82;21891;-53
2022/06/22 10:37:27;;;;;;;1.98;1.35;;;;;;;21.49;38.79;93946.92;1734143;81;21292;-52
2022/06/22 10:45:08;;;;;;;2.92;1.10;;;;;;;21.38;39.14;93947.11;1701568;83;21022;-53
2022/06/22 10:45:58;;;;;;;2.40;1.20;;;;;;;21.47;38.44;93950.91;1717313;81;20999;-52
2022/06/22 10:49:04;;;;;;;3.42;1.02;;;;;;;21.65;39.66;93941.69;1746727;81;21096;-50
2022/06/22 10:51:58;;;;;;;1.12;0.80;;;;;;;22.21;38.24;93934.41;1707327;83;20967;-54
2022/06/22 10:55:00;;;;;;;1.12;0.60;;;;;;;22.87;36.74;93929.47;1683278;85;21104;-50
2022/06/22 10:57:56;;;;;;;1.02;0.70;;;;;;;23.35;37.36;93921.80;1728778;82;21141;-51
2022/06/22 11:01:04;;;;;;;2.67;0.82;;;;;;;23.98;35.53;93924.59;1741294;81;21017;-51
2022/06/22 11:04:02;;;;;;;1.37;0.98;;;;;;;24.44;35.08;93924.24;1747078;81;21810;-50
2022/06/22 11:06:50;;;;;;;6.05;2.08;;;;;;;24.82;35.54;93918.86;1699833;83;22303;-54
2022/06/22 11:09:47;;;;;;;1.62;0.90;;;;;;;25.32;33.87;93922.89;1694768;81;21112;-53
2022/06/22 11:12:38;;;;;;;1.40;0.95;;;;;;;25.57;33.08;93922.41;1691447;83;21830;-51
2022/06/22 11:15:33;;;;;;;3.70;1.37;;;;;;;25.61;32.52;93921.37;1672129;84;21086;-54
2022/06/22 11:18:21;;;;;;;2.42;1.30;;;;;;;25.63;31.94;93922.98;1693923;84;21128;-52
2022/06/22 11:21:36;;;;;;;3.90;1.30;;;;;;;25.93;31.95;93924.37;1655407;82;21035;-58
2022/06/22 11:24:18;;;;;;;2.25;1.05;;;;;;;25.95;31.48;93916.18;1690133;83;21162;-52
2022/06/22 11:30:58;;;;;;;0.57;0.50;;;;;;;25.91;30.30;93919.31;1675642;83;21063;-56
2022/06/22 11:34:07;;;;;;;1.17;0.87;;;;;;;26.35;30.80;93915.61;1695618;83;21134;-55
2022/06/22 11:37:04;;;;;;;2.25;0.57;;;;;;;26.70;30.29;93920.17;1690505;83;21220;-57
2022/06/22 11:39:43;;;;;;;0.80;0.78;;;;;;;26.66;29.94;93926.87;1688073;83;21014;-56
2022/06/22 11:42:50;;;;;;;1.72;0.70;;;;;;;26.90;29.74;93913.50;1681180;83;21078;-57
2022/06/22 11:45:50;;;;;;;1.30;0.78;;;;;;;26.93;29.58;93920.05;1698990;83;21113;-56
2022/06/22 11:48:40;;;;;;;1.30;0.45;;;;;;;27.34;28.47;93908.12;1683711;84;21818;-54
2022/06/22 11:51:34;;;;;;;4.58;0.70;;;;;;;27.65;27.53;93903.08;1686253;83;21040;-55
2022/06/22 11:54:16;;;;;;;2.83;1.20;;;;;;;28.00;29.02;93923.05;1684454;83;21617;-53
2022/06/22 11:57:01;;;;;;;1.80;0.70;;;;;;;28.37;26.83;93916.99;1730557;81;21031;-53
2022/06/22 12:00:03;;;;;;;1.50;0.57;;;;;;;28.51;26.88;93917.39;1700425;83;20998;-53
2022/06/22 12:03:20;;;;;;;1.85;0.60;;;;;;;28.08;26.79;93914.56;1692001;83;21081;-53
2022/06/22 12:06:32;;;;;;;0.40;0.40;;;;;;;27.72;27.93;93922.07;1725911;81;21090;-52
2022/06/22 12:09:48;;;;;;;2.22;0.70;;;;;;;27.71;28.15;93914.92;1692706;83;21101;-53
2022/06/22 12:13:01;;;;;;;2.72;0.78;;;;;;;27.73;28.16;93916.50;1698353;83;20995;-53
2022/06/22 12:15:44;;;;;;;;;;;;;;;27.41;27.54;93920.78;1706049;82;21030;-51
2022/06/22 12:18:44;;;;;;;;;;;;;;;26.86;28.59;93919.45;1698968;83;21237;-54
2022/06/22 12:21:50;;;;;;;2.45;0.60;;;;;;;26.74;28.58;93918.37;1696390;83;20513;-54
2022/06/22 12:24:56;;;;;;;0.90;0.50;;;;;;;27.16;28.72;93909.38;1692847;82;21809;-53
2022/06/22 12:27:35;;;;;;;1.42;0.78;;;;;;;27.71;27.78;93903.61;1721222;82;20999;-52
2022/06/22 12:30:37;;;;;;;4.95;0.70;;;;;;;27.62;27.98;93902.80;1673996;83;21527;-52
2022/06/22 12:33:45;;;;;;;1.12;0.50;;;;;;;27.53;28.69;93911.94;1710697;82;21234;-52
2022/06/22 12:36:17;;;;;;;1.12;0.70;;;;;;;27.94;28.48;93906.97;1648385;85;20904;-52
2022/06/22 12:39:20;;;;;;;3.02;0.50;;;;;;;28.81;26.50;93918.44;1696942;83;21057;-52
2022/06/22 12:42:07;;;;;;;2.67;0.78;;;;;;;29.10;25.76;93909.48;1669296;82;21000;-57
2022/06/22 12:45:04;;;;;;;2.12;0.50;;;;;;;28.60;26.28;93903.99;1727106;81;21053;-54
2022/06/22 12:48:15;;;;;;;2.45;0.60;;;;;;;28.13;26.83;93905.08;1696790;84;21236;-53
2022/06/22 12:51:08;;;;;;;0.55;0.50;;;;;;;28.05;27.20;93907.90;1692849;83;21039;-52
2022/06/22 12:54:09;;;;;;;1.75;0.60;;;;;;;28.81;26.61;93907.11;1676979;84;21062;-52
2022/06/22 12:56:59;;;;;;;1.95;0.57;;;;;;;29.69;26.38;93905.66;1694659;83;21847;-54
2022/06/22 12:59:51;;;;;;;;;;;;;;;30.69;25.31;93899.16;1681783;83;21444;-51
2022/06/22 13:02:27;;;;;;;1.52;0.70;;;;;;;30.86;25.02;93914.62;1699826;83;21235;-54
2022/06/22 13:05:07;;;;;;;1.32;0.68;;;;;;;30.94;24.93;93912.38;1721124;81;21502;-51
2022/06/22 13:07:43;;;;;;;1.15;0.80;;;;;;;31.43;25.29;93908.81;1738243;81;21123;-53
2022/06/22 13:10:25;;;;;;;2.00;0.80;;;;;;;31.96;24.91;93905.45;1698669;83;21085;-50
2022/06/22 13:13:48;;;;;;;0.78;0.47;;;;;;;32.08;24.22;93907.72;1743072;81;21595;-52